Time;durP1;ratioP1;P1;durP2;ratioP2;P2;SDS_P1;SDS_P2;PMS_P1;PMS_P2;Temp;Humidity;BMP_temperature;BMP_pressure;BME280_temperature;BME280_humidity;BME280_pressure;Samples;Min_cycle;Max_cycle;Signal;HPM_P1;HPM_P2
2021/09/13 00:01:29;;;;;;;9.05;4.22;;;;;;;16.26;76.40;101846.56;4991975;28;20045;-61
2021/09/13 00:03:57;;;;;;;8.65;5.03;;;;;;;16.28;76.28;101844.34;4992628;28;20114;-61
2021/09/13 00:06:28;;;;;;;8.63;4.63;;;;;;;16.32;75.90;101844.59;4992801;28;20497;-61
2021/09/13 00:08:55;;;;;;;10.65;4.80;;;;;;;16.31;75.86;101846.53;4992795;28;20493;-60
2021/09/13 00:11:23;;;;;;;6.65;4.50;;;;;;;16.32;76.12;101850.09;4992728;28;20456;-61
2021/09/13 00:13:51;;;;;;;7.70;4.45;;;;;;;16.29;75.70;101847.94;4993139;28;20049;-61
2021/09/13 00:16:19;;;;;;;9.25;5.03;;;;;;;16.26;75.74;101853.97;4991621;28;20133;-60
2021/09/13 00:18:49;;;;;;;11.00;4.50;;;;;;;16.24;75.78;101847.97;4992927;28;20065;-61
2021/09/13 00:21:17;;;;;;;9.07;4.80;;;;;;;16.22;75.81;101841.91;4992605;28;20046;-61
2021/09/13 00:23:45;;;;;;;8.43;4.80;;;;;;;16.20;75.71;101842.19;4992539;28;20046;-61
2021/09/13 00:26:12;;;;;;;8.18;4.65;;;;;;;16.18;75.67;101834.19;4992538;28;20074;-59
2021/09/13 00:28:40;;;;;;;8.63;4.68;;;;;;;16.19;76.19;101840.53;4988059;28;20057;-60
2021/09/13 00:31:09;;;;;;;8.35;4.85;;;;;;;16.17;75.90;101831.75;4972621;28;20052;-60
2021/09/13 00:33:37;;;;;;;8.82;4.75;;;;;;;16.17;75.92;101834.50;4973024;28;20399;-61
2021/09/13 00:36:06;;;;;;;8.77;4.65;;;;;;;16.16;75.79;101832.84;4973427;28;20043;-61
2021/09/13 00:38:34;;;;;;;8.93;5.13;;;;;;;16.13;75.78;101827.91;4972763;28;20510;-60
2021/09/13 00:41:07;;;;;;;7.28;4.47;;;;;;;16.08;75.83;101828.75;4973036;28;20041;-61
2021/09/13 00:43:34;;;;;;;8.82;4.80;;;;;;;16.06;76.38;101830.94;4973290;28;20133;-60
2021/09/13 00:46:02;;;;;;;7.75;4.68;;;;;;;16.00;75.67;101836.78;4972885;28;20050;-61
2021/09/13 00:48:30;;;;;;;11.05;4.82;;;;;;;15.94;76.44;101822.19;4971945;28;20046;-60
2021/09/13 00:50:58;;;;;;;10.48;5.13;;;;;;;15.93;76.73;101832.38;4971652;28;20416;-60
2021/09/13 00:53:26;;;;;;;10.07;4.82;;;;;;;15.95;76.86;101829.34;4971541;28;20414;-61
2021/09/13 00:55:55;;;;;;;8.07;4.68;;;;;;;15.94;76.50;101824.94;4972613;28;20055;-60
2021/09/13 00:58:27;;;;;;;7.88;4.82;;;;;;;15.92;76.55;101818.91;4972667;28;20050;-62
2021/09/13 01:01:02;;;;;;;7.30;4.82;;;;;;;15.92;76.79;101821.66;4987174;28;20054;-60
2021/09/13 01:03:33;;;;;;;7.25;4.70;;;;;;;15.93;76.18;101815.06;4987938;28;20039;-61
2021/09/13 01:06:01;;;;;;;7.40;5.32;;;;;;;15.90;76.75;101821.94;4972753;28;20493;-58
2021/09/13 01:08:30;;;;;;;9.07;4.70;;;;;;;15.89;76.76;101824.97;4954763;28;20047;-59
2021/09/13 01:10:58;;;;;;;7.82;4.97;;;;;;;15.90;76.44;101826.63;4987622;28;20494;-60
2021/09/13 01:13:26;;;;;;;9.43;5.43;;;;;;;15.90;76.91;101815.63;4955823;28;20077;-56
2021/09/13 01:15:54;;;;;;;9.20;5.43;;;;;;;15.93;76.40;101820.56;4974298;28;20462;-58
2021/09/13 01:18:22;;;;;;;10.00;5.13;;;;;;;15.93;76.23;101820.56;4976811;28;20043;-61
2021/09/13 01:20:49;;;;;;;7.90;5.65;;;;;;;15.91;76.32;101822.75;4975692;28;20042;-60
2021/09/13 01:23:27;;;;;;;9.57;5.65;;;;;;;15.86;76.92;101820.03;4975099;28;20133;-61
2021/09/13 01:26:06;;;;;;;9.05;5.57;;;;;;;15.86;76.75;101817.28;4975431;28;20094;-61
2021/09/13 01:28:36;;;;;;;8.65;5.15;;;;;;;15.87;76.76;101821.66;4975280;28;20576;-59
2021/09/13 01:31:06;;;;;;;10.00;5.45;;;;;;;15.87;76.64;101816.16;4975508;28;20406;-60
2021/09/13 01:33:40;;;;;;;10.07;5.75;;;;;;;15.83;76.20;101820.59;4991377;28;20510;-61
2021/09/13 01:36:10;;;;;;;9.70;5.82;;;;;;;15.81;76.63;101822.81;4991342;28;20050;-61
2021/09/13 01:38:39;;;;;;;8.10;5.45;;;;;;;15.77;76.61;101822.53;4975973;28;20074;-61
2021/09/13 01:41:09;;;;;;;7.65;5.88;;;;;;;15.76;76.72;101821.69;4975087;28;20494;-61
2021/09/13 01:43:38;;;;;;;8.60;5.22;;;;;;;15.79;77.08;101825.81;4975761;28;20466;-61
2021/09/13 01:46:06;;;;;;;9.05;5.53;;;;;;;15.81;76.99;101825.56;4975589;28;20043;-61
2021/09/13 01:48:39;;;;;;;9.35;5.72;;;;;;;15.80;76.75;101823.88;4975603;28;20042;-57
2021/09/13 01:51:08;;;;;;;9.48;6.05;;;;;;;15.77;76.62;101822.53;4991625;28;20109;-61
2021/09/13 01:53:36;;;;;;;10.00;6.18;;;;;;;15.73;77.25;101833.25;4990965;28;20055;-60
2021/09/13 01:56:05;;;;;;;11.02;6.20;;;;;;;15.71;77.07;101820.91;4974704;28;20051;-59
2021/09/13 01:58:33;;;;;;;10.15;6.43;;;;;;;15.70;77.33;101820.06;4975281;28;20042;-61
2021/09/13 02:01:02;;;;;;;11.88;6.35;;;;;;;15.67;76.90;101828.00;4991240;28;20158;-60
2021/09/13 02:03:36;;;;;;;9.32;5.88;;;;;;;15.61;77.32;101823.63;4975932;28;20520;-61
2021/09/13 02:06:05;;;;;;;9.27;5.80;;;;;;;15.57;77.69;101825.28;4974474;28;20126;-61
2021/09/13 02:08:33;;;;;;;8.18;5.50;;;;;;;15.50;77.85;101839.31;4974419;28;20059;-61
2021/09/13 02:11:05;;;;;;;9.10;5.70;;;;;;;15.47;77.46;101834.38;4990829;28;20059;-59
2021/09/13 02:13:34;;;;;;;13.40;6.35;;;;;;;15.45;77.93;101831.06;4974779;28;20059;-54
2021/09/13 02:16:03;;;;;;;10.95;6.32;;;;;;;15.43;78.13;101834.09;4974543;28;20051;-61
2021/09/13 02:18:34;;;;;;;10.13;5.97;;;;;;;15.41;78.61;101833.53;4974780;28;20046;-61
2021/09/13 02:21:02;;;;;;;10.25;6.00;;;;;;;15.39;78.49;101832.97;4974094;28;20047;-62
2021/09/13 02:23:30;;;;;;;9.40;6.22;;;;;;;15.37;78.34;101817.88;4990479;28;20046;-61
2021/09/13 02:26:04;;;;;;;10.43;6.05;;;;;;;15.37;78.92;101824.22;4974224;28;20058;-61
2021/09/13 02:28:32;;;;;;;10.82;6.72;;;;;;;15.38;78.47;101825.03;4974332;28;20053;-60
2021/09/13 02:31:00;;;;;;;11.15;6.28;;;;;;;15.38;78.64;101816.78;4974635;28;20137;-60
2021/09/13 02:33:28;;;;;;;9.88;6.28;;;;;;;15.40;78.50;101825.59;4974102;28;20059;-60
2021/09/13 02:35:56;;;;;;;10.32;7.10;;;;;;;15.37;78.13;101823.38;4974952;28;20050;-60
2021/09/13 02:38:24;;;;;;;9.27;6.20;;;;;;;15.30;77.90;101813.50;4990314;28;20070;-60
2021/09/13 02:40:52;;;;;;;10.35;6.43;;;;;;;15.27;78.54;101816.81;4990259;28;20066;-61
2021/09/13 02:43:20;;;;;;;8.65;6.10;;;;;;;15.28;78.68;101810.22;4974013;28;20046;-61
2021/09/13 02:45:47;;;;;;;10.00;6.75;;;;;;;15.29;78.85;101811.84;4975474;28;20051;-61
2021/09/13 02:48:15;;;;;;;11.10;6.97;;;;;;;15.34;78.48;101814.59;4973958;28;20089;-61
2021/09/13 02:50:43;;;;;;;9.98;6.93;;;;;;;15.38;78.11;101811.31;4974743;28;20043;-61
2021/09/13 02:53:11;;;;;;;13.50;7.32;;;;;;;15.40;78.18;101803.63;4990041;28;20051;-60
2021/09/13 02:55:38;;;;;;;13.07;7.13;;;;;;;15.42;78.34;101802.22;4975026;28;20078;-61
2021/09/13 02:58:06;;;;;;;10.82;6.95;;;;;;;15.43;77.47;101797.56;4973957;28;20130;-61
2021/09/13 03:00:37;;;;;;;10.93;6.97;;;;;;;15.39;78.04;101801.94;4973856;28;20054;-61
2021/09/13 03:03:07;;;;;;;12.35;7.35;;;;;;;15.33;78.01;101804.72;4973827;28;20050;-59
2021/09/13 03:05:36;;;;;;;13.32;7.65;;;;;;;15.31;78.04;101812.38;4957621;28;20050;-61
2021/09/13 03:08:10;;;;;;;11.30;7.30;;;;;;;15.31;78.07;101814.31;4958415;28;20042;-61
2021/09/13 03:10:37;;;;;;;10.18;6.82;;;;;;;15.32;78.20;101810.47;4973737;28;20055;-61
2021/09/13 03:13:07;;;;;;;9.90;7.38;;;;;;;15.36;78.17;101816.25;4989743;28;20046;-61
2021/09/13 03:15:35;;;;;;;11.15;6.70;;;;;;;15.33;77.83;101804.72;4957905;28;20101;-61
2021/09/13 03:18:02;;;;;;;9.85;6.78;;;;;;;15.32;77.39;101811.31;4973153;28;20049;-61
2021/09/13 03:20:32;;;;;;;10.57;5.63;;;;;;;15.28;77.60;101804.72;4988867;28;20109;-61
2021/09/13 03:23:00;;;;;;;10.52;6.20;;;;;;;15.25;77.92;101802.53;4989306;28;20125;-61
2021/09/13 03:25:27;;;;;;;8.93;6.13;;;;;;;15.22;77.52;101800.31;4974356;28;20045;-61
2021/09/13 03:27:58;;;;;;;10.57;6.50;;;;;;;15.19;76.73;101803.63;4973287;28;20046;-59
2021/09/13 03:30:30;;;;;;;9.65;6.35;;;;;;;15.12;77.18;101800.31;4973350;28;20564;-60
2021/09/13 03:32:58;;;;;;;10.52;6.07;;;;;;;15.10;77.13;101791.53;4972999;28;20055;-61
2021/09/13 03:35:26;;;;;;;7.65;6.03;;;;;;;15.08;76.51;101799.22;4972706;28;20027;-61
2021/09/13 03:37:55;;;;;;;11.85;6.90;;;;;;;15.01;76.70;101802.25;4972455;28;20047;-60
2021/09/13 03:40:23;;;;;;;10.68;6.57;;;;;;;14.98;77.39;101805.53;4973108;28;20077;-62
2021/09/13 03:42:50;;;;;;;9.43;6.68;;;;;;;14.99;77.53;101807.19;4974295;28;20070;-61
2021/09/13 03:45:18;;;;;;;9.75;6.40;;;;;;;15.04;76.95;101809.13;4972787;28;20074;-61
2021/09/13 03:48:04;;;;;;;10.30;6.22;;;;;;;15.05;76.94;101808.81;4973858;28;20050;-61
2021/09/13 03:50:36;;;;;;;13.18;7.03;;;;;;;15.05;76.82;101810.75;4989010;28;20545;-60
2021/09/13 03:53:04;;;;;;;9.95;6.93;;;;;;;15.04;76.74;101807.19;4973074;28;20042;-59
2021/09/13 03:55:32;;;;;;;10.45;6.65;;;;;;;15.02;76.48;101806.63;4973882;28;20105;-60
2021/09/13 03:58:00;;;;;;;10.35;5.90;;;;;;;14.98;77.02;101810.19;4972631;28;20511;-62
2021/09/13 04:00:28;;;;;;;7.78;6.05;;;;;;;14.98;77.33;101810.19;4973900;28;20131;-61
2021/09/13 04:02:55;;;;;;;9.60;6.30;;;;;;;15.01;76.90;101809.63;4973116;28;20051;-61
2021/09/13 04:05:25;;;;;;;8.13;5.80;;;;;;;15.02;76.97;101811.31;4972694;28;20039;-61
2021/09/13 04:08:29;;;;;;;12.85;6.68;;;;;;;15.02;77.10;101800.31;4973500;28;20109;-61
2021/09/13 04:13:57;;;;;;;10.00;6.50;;;;;;;14.98;77.33;101793.72;4988805;28;20046;-61
2021/09/13 04:16:31;;;;;;;9.35;5.85;;;;;;;15.01;77.38;101795.91;4973459;28;20047;-61
2021/09/13 04:19:17;;;;;;;8.98;6.53;;;;;;;14.99;77.41;101790.72;4972147;28;20472;-60
2021/09/13 04:22:03;;;;;;;12.48;6.80;;;;;;;14.98;77.45;101797.28;4973283;28;20486;-59
2021/09/13 04:24:49;;;;;;;;;;;;;;;14.95;76.60;101797.03;4973690;28;20050;-60
2021/09/13 04:27:32;;;;;;;12.20;7.10;;;;;;;14.86;77.20;101797.59;4988414;28;19922;-57
2021/09/13 04:30:20;;;;;;;10.32;7.00;;;;;;;14.86;77.16;101802.22;4955620;28;20039;-61
2021/09/13 04:33:13;;;;;;;11.33;7.17;;;;;;;14.82;77.10;101799.22;4971685;28;20105;-61
2021/09/13 04:35:53;;;;;;;10.45;7.57;;;;;;;14.74;76.72;101799.75;4972138;28;20042;-60
2021/09/13 04:38:41;;;;;;;10.13;6.78;;;;;;;14.69;77.67;101791.50;4913222;29;20056;-61
2021/09/13 04:41:27;;;;;;;;;;;;;;;14.72;77.67;101793.72;4898294;29;20572;-60
2021/09/13 04:44:33;;;;;;;9.80;7.05;;;;;;;14.76;77.96;101797.53;4894549;29;19930;-61
2021/09/13 04:47:25;;;;;;;10.23;7.05;;;;;;;14.76;77.66;101789.31;4894037;29;20127;-60
2021/09/13 04:50:11;;;;;;;9.32;6.75;;;;;;;14.72;77.94;101799.22;4894768;29;20052;-60
2021/09/13 04:52:59;;;;;;;10.55;7.18;;;;;;;14.64;77.78;101783.28;4894298;29;20424;-60
2021/09/13 04:55:26;;;;;;;10.63;7.55;;;;;;;14.62;78.25;101801.91;4894254;29;20056;-60
2021/09/13 04:57:54;;;;;;;9.75;7.40;;;;;;;14.59;77.75;101802.47;4894368;29;20147;-59
2021/09/13 05:00:24;;;;;;;10.00;7.35;;;;;;;14.56;78.17;101803.00;4878890;29;20108;-60
2021/09/13 05:02:52;;;;;;;11.07;7.72;;;;;;;14.55;78.16;101809.56;4878671;29;20057;-57
2021/09/13 05:05:21;;;;;;;9.80;7.35;;;;;;;14.56;78.53;101803.00;4894183;29;20135;-58
2021/09/13 05:07:50;;;;;;;9.82;7.10;;;;;;;14.58;78.12;101809.06;4894017;29;20060;-54
2021/09/13 05:10:19;;;;;;;10.43;7.70;;;;;;;14.59;78.32;101807.94;4894050;29;20052;-54
2021/09/13 05:12:47;;;;;;;10.75;7.65;;;;;;;14.60;78.51;101809.59;4878541;29;20131;-59
2021/09/13 05:15:19;;;;;;;9.43;6.60;;;;;;;14.57;78.29;101810.13;4915609;28;20053;-57
2021/09/13 05:17:47;;;;;;;9.50;7.00;;;;;;;14.57;78.29;101812.88;4968015;28;20046;-58
2021/09/13 05:20:15;;;;;;;9.90;6.72;;;;;;;14.56;78.66;101817.53;4955305;28;20051;-58
2021/09/13 05:22:43;;;;;;;9.45;6.53;;;;;;;14.57;78.45;101815.63;4969341;28;20125;-58
2021/09/13 05:25:13;;;;;;;15.45;7.50;;;;;;;14.57;78.51;101821.09;4971573;28;20084;-58
2021/09/13 05:27:41;;;;;;;11.63;7.60;;;;;;;14.52;78.33;101819.13;4987004;28;20478;-60
2021/09/13 05:30:09;;;;;;;9.88;7.25;;;;;;;14.49;78.78;101828.72;4970650;28;20045;-57
2021/09/13 05:32:37;;;;;;;10.65;7.68;;;;;;;14.51;78.88;101833.13;4971166;28;20062;-60
2021/09/13 05:35:06;;;;;;;10.70;6.78;;;;;;;14.53;78.60;101833.66;4986998;28;20554;-60
2021/09/13 05:37:34;;;;;;;9.60;6.45;;;;;;;14.54;78.51;101830.69;4986894;28;20043;-59
2021/09/13 05:40:06;;;;;;;9.10;6.70;;;;;;;14.54;78.38;101830.69;4955174;28;20055;-60
2021/09/13 05:42:34;;;;;;;11.30;6.60;;;;;;;14.54;78.74;101838.94;4954878;28;20148;-58
2021/09/13 05:45:04;;;;;;;9.00;6.38;;;;;;;14.53;78.25;101837.25;4986673;28;20046;-58
2021/09/13 05:47:34;;;;;;;8.80;6.20;;;;;;;14.51;78.85;101828.47;4971059;28;20121;-53
2021/09/13 05:50:02;;;;;;;10.20;6.30;;;;;;;14.54;78.62;101832.63;4971022;28;20047;-58
2021/09/13 05:52:30;;;;;;;7.22;5.13;;;;;;;14.58;78.86;101840.03;4986522;28;20102;-56
2021/09/13 05:54:58;;;;;;;7.50;4.20;;;;;;;14.60;78.41;101835.13;4987038;28;20050;-58
2021/09/13 05:57:26;;;;;;;6.82;4.25;;;;;;;14.63;78.76;101831.00;4971087;28;20055;-59
2021/09/13 05:59:54;;;;;;;7.40;5.22;;;;;;;14.64;78.42;101838.94;4970520;28;20070;-58
2021/09/13 06:02:24;;;;;;;8.75;5.57;;;;;;;14.67;78.77;101840.31;4972378;28;20040;-58
2021/09/13 06:05:00;;;;;;;7.93;5.57;;;;;;;14.70;78.55;101839.81;4974221;28;20047;-59
2021/09/13 06:07:28;;;;;;;7.88;5.68;;;;;;;14.72;78.70;101837.63;4974272;28;20046;-58
2021/09/13 06:09:56;;;;;;;9.73;5.72;;;;;;;14.71;78.83;101838.69;4974327;28;20379;-60
2021/09/13 06:12:24;;;;;;;10.10;6.05;;;;;;;14.74;78.87;101842.81;4973925;28;20121;-57
2021/09/13 06:15:00;;;;;;;8.30;5.37;;;;;;;14.75;78.40;101839.81;4973815;28;20458;-57
2021/09/13 06:17:31;;;;;;;8.80;5.70;;;;;;;14.73;78.21;101847.47;4958690;28;20317;-60
2021/09/13 06:20:00;;;;;;;8.65;5.07;;;;;;;14.68;78.86;101855.69;4974065;28;20137;-58
2021/09/13 06:22:29;;;;;;;8.00;5.30;;;;;;;14.62;78.94;101843.06;4973984;28;20126;-57
2021/09/13 06:25:00;;;;;;;7.75;4.65;;;;;;;14.61;79.02;101855.13;4989883;28;20512;-58
2021/09/13 06:27:28;;;;;;;9.02;4.72;;;;;;;14.57;79.56;101843.84;4973608;28;20047;-59
2021/09/13 06:29:56;;;;;;;8.20;4.65;;;;;;;14.56;79.80;101853.19;4973846;28;20054;-56
2021/09/13 06:32:24;;;;;;;9.07;4.97;;;;;;;14.58;79.94;101851.00;4973621;28;20082;-58
2021/09/13 06:34:51;;;;;;;7.10;4.53;;;;;;;14.62;80.05;101851.28;4974201;28;20102;-58
2021/09/13 06:37:27;;;;;;;8.55;4.75;;;;;;;14.65;79.92;101853.50;4973808;28;20039;-57
2021/09/13 06:39:58;;;;;;;8.23;4.32;;;;;;;14.68;80.28;101862.00;4975141;28;20055;-59
2021/09/13 06:42:30;;;;;;;12.07;4.70;;;;;;;14.73;79.93;101863.13;4972922;28;20089;-54
2021/09/13 06:45:08;;;;;;;14.07;4.32;;;;;;;14.75;80.02;101864.50;4973652;28;20065;-57
2021/09/13 06:47:44;;;;;;;8.83;4.47;;;;;;;14.79;80.14;101862.03;4974504;28;20039;-58
2021/09/13 06:50:16;;;;;;;11.50;4.80;;;;;;;14.81;79.95;101868.06;4975264;28;20290;-59
2021/09/13 06:52:48;;;;;;;9.93;5.13;;;;;;;14.83;80.44;101860.41;4973019;28;20442;-57
2021/09/13 06:55:16;;;;;;;8.85;5.25;;;;;;;14.85;80.39;101859.03;4984680;28;20112;-59
2021/09/13 06:57:45;;;;;;;6.68;3.90;;;;;;;14.87;80.05;101859.59;4985420;28;20046;-59
2021/09/13 07:00:15;;;;;;;14.07;5.25;;;;;;;14.96;80.73;101856.28;4973462;28;20073;-59
2021/09/13 07:02:44;;;;;;;11.73;5.60;;;;;;;14.99;80.18;101861.25;4974157;28;20074;-59
2021/09/13 07:05:13;;;;;;;21.58;6.30;;;;;;;15.01;79.91;101853.56;4974294;28;20054;-59
2021/09/13 07:07:42;;;;;;;13.00;5.95;;;;;;;15.02;80.01;101855.22;4973887;28;20051;-59
2021/09/13 07:10:11;;;;;;;11.18;6.75;;;;;;;15.02;79.97;101857.97;4973991;28;20057;-58
2021/09/13 07:12:38;;;;;;;12.43;7.03;;;;;;;15.04;79.85;101853.03;4972403;28;20047;-54
2021/09/13 07:15:07;;;;;;;12.05;6.93;;;;;;;15.05;79.68;101850.00;4973640;28;20047;-58
2021/09/13 07:17:35;;;;;;;13.15;6.78;;;;;;;15.06;79.73;101856.34;4974062;28;20058;-58
2021/09/13 07:20:03;;;;;;;10.90;6.03;;;;;;;15.07;80.25;101867.03;4974318;28;20063;-59
2021/09/13 07:22:31;;;;;;;12.57;6.10;;;;;;;15.11;80.34;101870.06;4972479;28;20046;-60
2021/09/13 07:24:59;;;;;;;11.57;5.72;;;;;;;15.12;80.12;101866.19;4974029;28;20039;-58
2021/09/13 07:27:26;;;;;;;10.65;5.47;;;;;;;15.12;80.53;101856.03;4974463;28;20051;-59
2021/09/13 07:29:59;;;;;;;9.77;5.22;;;;;;;15.15;80.34;101862.91;4974125;28;20043;-60
2021/09/13 07:32:26;;;;;;;9.70;5.05;;;;;;;15.18;80.41;101867.06;4973928;28;20042;-59
2021/09/13 07:34:54;;;;;;;9.02;5.15;;;;;;;15.20;80.79;101867.56;4969492;28;20074;-58
2021/09/13 07:37:22;;;;;;;10.65;5.55;;;;;;;15.21;80.74;101864.56;4978379;28;21038;-59
2021/09/13 07:39:51;;;;;;;10.93;4.82;;;;;;;15.25;80.84;101873.91;4977735;28;20063;-55
2021/09/13 07:42:20;;;;;;;11.30;5.40;;;;;;;15.29;80.66;101865.94;4978661;28;20122;-59
2021/09/13 07:44:47;;;;;;;8.30;4.97;;;;;;;15.34;80.55;101863.19;4974671;28;20046;-57
2021/09/13 07:47:15;;;;;;;12.93;6.28;;;;;;;15.37;80.78;101861.81;4974144;28;20035;-57
2021/09/13 07:49:43;;;;;;;14.23;5.63;;;;;;;15.36;81.52;101880.22;4974144;28;20053;-60
2021/09/13 07:52:10;;;;;;;11.68;5.15;;;;;;;15.34;81.46;101880.50;4974051;28;20043;-59
2021/09/13 07:54:38;;;;;;;11.80;5.78;;;;;;;15.37;81.74;101881.03;4973089;28;20043;-59
2021/09/13 07:57:05;;;;;;;10.98;4.88;;;;;;;15.41;81.19;101884.91;4972776;28;20490;-59
2021/09/13 07:59:33;;;;;;;10.88;5.18;;;;;;;15.46;81.47;101893.13;4972525;28;20045;-59
2021/09/13 08:02:00;;;;;;;9.38;5.07;;;;;;;15.50;81.22;101891.50;4972765;28;20592;-60
2021/09/13 08:04:29;;;;;;;9.20;4.70;;;;;;;15.51;81.35;101888.47;4971854;28;20039;-60
2021/09/13 08:06:56;;;;;;;12.13;5.63;;;;;;;15.56;81.35;101898.63;4973657;28;20042;-59
2021/09/13 08:09:24;;;;;;;12.43;5.10;;;;;;;15.59;81.45;101898.09;4972753;28;20516;-59
2021/09/13 08:11:51;;;;;;;8.13;3.97;;;;;;;15.62;81.06;101905.75;4973669;28;20506;-59
2021/09/13 08:14:21;;;;;;;10.32;4.07;;;;;;;15.64;81.20;101905.50;4973349;28;20054;-59
2021/09/13 08:16:51;;;;;;;10.70;5.15;;;;;;;15.67;81.91;101903.00;4971987;28;20438;-60
2021/09/13 08:19:19;;;;;;;13.25;5.18;;;;;;;15.69;82.14;101903.56;4973570;28;20039;-59
2021/09/13 08:21:48;;;;;;;9.90;3.53;;;;;;;15.72;82.73;101907.72;4972775;28;20043;-60
2021/09/13 08:24:15;;;;;;;12.30;3.67;;;;;;;15.73;82.77;101910.19;4972198;28;20067;-60
2021/09/13 08:26:45;;;;;;;10.10;3.03;;;;;;;15.76;82.18;101919.81;4956149;28;20043;-59
2021/09/13 08:29:17;;;;;;;8.48;3.88;;;;;;;15.81;82.61;101918.97;4956057;28;20054;-57
2021/09/13 08:31:47;;;;;;;8.40;4.10;;;;;;;15.84;82.98;101927.50;4973291;28;20066;-59
2021/09/13 08:34:16;;;;;;;7.45;3.25;;;;;;;15.86;82.63;101918.97;4971682;28;20067;-59
2021/09/13 08:36:47;;;;;;;8.45;3.70;;;;;;;15.82;82.95;101924.19;4972717;28;20047;-58
2021/09/13 08:39:15;;;;;;;11.98;3.78;;;;;;;15.86;83.34;101921.72;4972606;28;20043;-59
2021/09/13 08:41:43;;;;;;;7.57;3.42;;;;;;;15.90;83.58;101920.06;4973045;28;20038;-58
2021/09/13 08:44:12;;;;;;;9.15;4.10;;;;;;;15.91;83.31;101927.22;4972879;28;20129;-59
2021/09/13 08:49:36;;;;;;;9.05;4.05;;;;;;;15.90;84.22;101925.56;4972910;28;20120;-58
2021/09/13 08:52:05;;;;;;;12.60;4.50;;;;;;;15.90;84.14;101920.06;4971037;28;20453;-60
2021/09/13 08:54:37;;;;;;;10.70;3.88;;;;;;;15.92;83.44;101915.09;4971866;28;20053;-60
2021/09/13 08:57:06;;;;;;;6.80;2.88;;;;;;;15.95;82.66;101918.13;4972631;28;20055;-59
2021/09/13 08:59:35;;;;;;;9.80;3.63;;;;;;;15.98;81.87;101919.50;4972670;28;20046;-59
2021/09/13 09:02:03;;;;;;;9.00;3.03;;;;;;;15.97;82.22;101904.94;4972705;28;20050;-60
2021/09/13 09:04:51;;;;;;;11.43;3.75;;;;;;;16.03;82.62;101914.00;4972354;28;20442;-59
2021/09/13 09:07:22;;;;;;;15.38;8.00;;;;;;;16.10;82.08;101909.03;4972118;28;20042;-59
2021/09/13 09:10:13;;;;;;;13.38;4.40;;;;;;;16.19;80.67;101912.84;4940274;28;20528;-59
2021/09/13 09:13:01;;;;;;;8.73;3.65;;;;;;;16.29;80.83;101922.19;4971637;28;20465;-59
2021/09/13 09:15:30;;;;;;;9.90;3.17;;;;;;;16.35;79.57;101929.31;4965846;28;20569;-61
2021/09/13 09:17:59;;;;;;;9.23;3.00;;;;;;;16.39;79.67;101922.97;4972580;28;20498;-54
2021/09/13 09:20:28;;;;;;;8.07;3.03;;;;;;;16.40;78.76;101918.28;4972576;28;20402;-59
2021/09/13 09:23:05;;;;;;;9.13;2.60;;;;;;;16.40;77.61;101923.78;4970755;28;20565;-60
2021/09/13 09:25:36;;;;;;;9.40;2.53;;;;;;;16.40;77.50;101929.28;4972276;28;20461;-59
2021/09/13 09:28:15;;;;;;;6.15;3.00;;;;;;;16.41;76.81;101922.69;4972453;28;20301;-56
2021/09/13 09:30:49;;;;;;;6.95;2.60;;;;;;;16.46;76.02;101921.84;4972052;28;20054;-53
2021/09/13 09:33:19;;;;;;;7.20;2.70;;;;;;;16.49;75.50;101926.78;4972126;28;20054;-58
2021/09/13 09:35:55;;;;;;;10.48;2.67;;;;;;;16.50;74.61;101932.03;4971965;28;20051;-58
2021/09/13 09:38:39;;;;;;;8.23;2.67;;;;;;;16.50;73.34;101928.41;4975815;28;20409;-58
2021/09/13 09:41:15;;;;;;;10.30;2.88;;;;;;;16.50;73.70;101921.00;4975799;28;20064;-60
2021/09/13 09:43:58;;;;;;;5.32;2.35;;;;;;;16.53;73.38;101920.44;4976342;28;20408;-58
2021/09/13 09:46:43;;;;;;;7.45;2.40;;;;;;;16.55;73.99;101923.75;4976170;28;20046;-56
2021/09/13 09:49:16;;;;;;;6.40;2.65;;;;;;;16.56;73.60;101910.81;4976044;28;20042;-59
2021/09/13 09:51:49;;;;;;;4.88;1.92;;;;;;;16.57;71.73;101920.69;4975243;28;20085;-60
2021/09/13 09:54:19;;;;;;;6.90;2.78;;;;;;;16.61;72.37;101913.53;4975961;28;20034;-58
2021/09/13 09:56:58;;;;;;;6.95;2.78;;;;;;;16.66;72.90;101916.25;4976036;28;20050;-59
2021/09/13 09:59:32;;;;;;;6.28;2.53;;;;;;;16.73;73.17;101904.94;4975803;28;20073;-58
2021/09/13 10:02:01;;;;;;;9.07;4.75;;;;;;;16.80;73.33;101905.50;4975789;28;20393;-58
2021/09/13 10:04:29;;;;;;;8.15;3.50;;;;;;;16.86;72.68;101903.53;4974171;28;20049;-59
2021/09/13 10:06:59;;;;;;;7.93;3.00;;;;;;;16.88;72.13;101901.31;4974852;28;20043;-58
2021/09/13 10:09:31;;;;;;;8.82;3.20;;;;;;;16.90;71.61;101899.91;4974374;28;20039;-60
2021/09/13 10:12:02;;;;;;;4.90;2.20;;;;;;;16.93;71.43;101904.03;4974852;28;20101;-59
2021/09/13 10:14:31;;;;;;;7.93;2.85;;;;;;;17.00;71.04;101904.53;4975488;28;20045;-59
2021/09/13 10:16:58;;;;;;;7.30;2.55;;;;;;;17.05;70.80;101907.25;4975313;28;20051;-59
2021/09/13 10:19:46;;;;;;;6.47;2.47;;;;;;;17.09;70.41;101902.03;4974880;28;20055;-59
2021/09/13 10:22:14;;;;;;;6.57;2.55;;;;;;;17.16;71.35;101900.59;4974054;28;20516;-60
2021/09/13 10:24:46;;;;;;;8.02;2.60;;;;;;;17.20;68.00;101903.59;4975099;28;20506;-59
2021/09/13 10:27:16;;;;;;;6.22;2.50;;;;;;;17.16;67.46;101908.03;4975258;28;20035;-59
2021/09/13 10:29:44;;;;;;;6.38;2.20;;;;;;;17.11;68.34;101902.56;4975340;28;20502;-56
2021/09/13 10:32:23;;;;;;;5.18;2.35;;;;;;;17.10;68.05;101909.16;4974767;28;20043;-60
2021/09/13 10:34:52;;;;;;;5.38;2.17;;;;;;;17.06;69.11;101897.09;4975263;28;20410;-59
2021/09/13 10:37:24;;;;;;;6.13;2.65;;;;;;;17.02;66.93;101897.63;4974929;28;20068;-59
2021/09/13 10:40:10;;;;;;;5.55;2.53;;;;;;;17.04;67.41;101900.94;4974958;28;20054;-59
2021/09/13 10:42:47;;;;;;;8.68;2.13;;;;;;;17.09;68.14;101891.00;4975080;28;20101;-59
2021/09/13 10:45:24;;;;;;;7.78;3.05;;;;;;;17.16;68.46;101897.00;4975118;28;20038;-59
2021/09/13 10:47:57;;;;;;;10.63;3.55;;;;;;;17.22;68.68;101884.84;4974455;28;20118;-59
2021/09/13 10:50:45;;;;;;;5.80;2.67;;;;;;;17.23;68.56;101881.81;4974456;28;20126;-58
2021/09/13 10:53:22;;;;;;;9.00;3.25;;;;;;;17.27;68.73;101876.56;4974793;28;20126;-58
2021/09/13 10:56:03;;;;;;;6.35;3.13;;;;;;;17.31;70.38;101882.31;4974344;28;20043;-59
2021/09/13 10:58:46;;;;;;;9.15;3.15;;;;;;;17.35;69.74;101877.88;4974944;28;20051;-59
2021/09/13 11:01:24;;;;;;;7.07;2.85;;;;;;;17.34;69.23;101877.06;4974394;28;20138;-59
2021/09/13 11:04:02;;;;;;;6.85;2.97;;;;;;;17.31;69.47;101883.13;4974531;28;20091;-59
2021/09/13 11:06:43;;;;;;;6.43;2.92;;;;;;;17.27;69.44;101875.72;4974233;28;20043;-59
2021/09/13 11:09:15;;;;;;;5.53;2.30;;;;;;;17.30;68.86;101872.41;4974498;28;20050;-59
2021/09/13 11:11:45;;;;;;;6.72;2.40;;;;;;;17.38;69.16;101872.59;4974377;28;20058;-58
2021/09/13 11:14:20;;;;;;;6.82;2.80;;;;;;;17.45;67.86;101873.09;4974884;28;20129;-59
2021/09/13 11:16:53;;;;;;;4.45;2.40;;;;;;;17.52;67.39;101869.19;4972775;28;20051;-58
2021/09/13 11:19:22;;;;;;;6.82;2.35;;;;;;;17.56;66.38;101868.31;4974224;28;20043;-59
2021/09/13 11:22:00;;;;;;;6.43;2.80;;;;;;;17.58;65.50;101859.75;4973809;28;20082;-58
2021/09/13 11:24:39;;;;;;;4.97;2.38;;;;;;;17.61;64.98;101848.16;4974348;28;20074;-61
2021/09/13 11:27:12;;;;;;;4.22;2.55;;;;;;;17.67;65.29;101849.72;4974152;28;20497;-58
2021/09/13 11:29:49;;;;;;;5.00;2.35;;;;;;;17.70;66.16;101849.16;4974328;28;20054;-56
2021/09/13 11:32:19;;;;;;;5.43;2.30;;;;;;;17.74;65.82;101841.94;4973650;28;20102;-56
2021/09/13 11:34:49;;;;;;;7.15;2.80;;;;;;;17.77;65.66;101832.28;4973642;28;20055;-59
2021/09/13 11:37:30;;;;;;;8.88;3.20;;;;;;;17.80;65.26;101828.94;4960437;28;20049;-61
2021/09/13 11:40:25;;;;;;;7.88;2.90;;;;;;;17.86;65.71;101836.06;4973893;28;20043;-61
2021/09/13 11:42:53;;;;;;;6.10;2.70;;;;;;;17.92;65.58;101836.81;4956888;28;20047;-56
2021/09/13 11:45:22;;;;;;;6.32;2.60;;;;;;;17.95;64.61;101831.56;4973803;28;20121;-58
2021/09/13 11:47:54;;;;;;;6.43;2.08;;;;;;;17.98;64.73;101832.91;4973413;28;20130;-58